sensor_id;sensor_type;location;lat;lon;timestamp;temperature;humidity
68922;DHT22;55959;51.244;5.724;2024-03-06T00:01:15;11.00;69.30
68922;DHT22;55959;51.244;5.724;2024-03-06T00:03:40;11.00;69.30
68922;DHT22;55959;51.244;5.724;2024-03-06T00:06:06;11.00;69.40
68922;DHT22;55959;51.244;5.724;2024-03-06T00:08:32;11.00;69.50
68922;DHT22;55959;51.244;5.724;2024-03-06T00:10:58;10.90;69.50
68922;DHT22;55959;51.244;5.724;2024-03-06T00:13:23;10.90;69.70
68922;DHT22;55959;51.244;5.724;2024-03-06T00:15:49;10.90;69.80
68922;DHT22;55959;51.244;5.724;2024-03-06T00:18:15;10.80;69.90
68922;DHT22;55959;51.244;5.724;2024-03-06T00:20:40;10.80;70.10
68922;DHT22;55959;51.244;5.724;2024-03-06T00:23:07;10.70;70.30
68922;DHT22;55959;51.244;5.724;2024-03-06T00:25:33;10.70;70.50
68922;DHT22;55959;51.244;5.724;2024-03-06T00:28:00;10.70;70.70
68922;DHT22;55959;51.244;5.724;2024-03-06T00:30:25;10.70;70.70
68922;DHT22;55959;51.244;5.724;2024-03-06T00:32:51;10.60;70.80
68922;DHT22;55959;51.244;5.724;2024-03-06T00:35:17;10.60;70.90
68922;DHT22;55959;51.244;5.724;2024-03-06T00:37:43;10.60;70.90
68922;DHT22;55959;51.244;5.724;2024-03-06T00:40:10;10.60;70.90
68922;DHT22;55959;51.244;5.724;2024-03-06T00:42:37;10.60;70.90
68922;DHT22;55959;51.244;5.724;2024-03-06T00:45:03;10.50;70.80
68922;DHT22;55959;51.244;5.724;2024-03-06T00:47:29;10.50;70.80
68922;DHT22;55959;51.244;5.724;2024-03-06T00:49:55;10.50;70.90
68922;DHT22;55959;51.244;5.724;2024-03-06T00:52:21;10.50;70.80
68922;DHT22;55959;51.244;5.724;2024-03-06T00:54:46;10.50;70.80
68922;DHT22;55959;51.244;5.724;2024-03-06T00:57:12;10.40;70.70
68922;DHT22;55959;51.244;5.724;2024-03-06T00:59:38;10.40;70.80
68922;DHT22;55959;51.244;5.724;2024-03-06T01:02:04;10.40;70.80
68922;DHT22;55959;51.244;5.724;2024-03-06T01:04:29;10.30;70.80
68922;DHT22;55959;51.244;5.724;2024-03-06T01:06:55;10.30;70.90
68922;DHT22;55959;51.244;5.724;2024-03-06T01:09:22;10.30;71.00
68922;DHT22;55959;51.244;5.724;2024-03-06T01:11:48;10.20;71.00
68922;DHT22;55959;51.244;5.724;2024-03-06T01:14:14;10.20;71.00
68922;DHT22;55959;51.244;5.724;2024-03-06T01:16:40;10.20;71.00
68922;DHT22;55959;51.244;5.724;2024-03-06T01:19:05;10.20;71.00
68922;DHT22;55959;51.244;5.724;2024-03-06T01:21:31;10.10;71.00
68922;DHT22;55959;51.244;5.724;2024-03-06T01:23:58;10.10;71.00
68922;DHT22;55959;51.244;5.724;2024-03-06T01:26:24;10.10;71.10
68922;DHT22;55959;51.244;5.724;2024-03-06T01:28:50;10.00;71.10
68922;DHT22;55959;51.244;5.724;2024-03-06T01:31:15;10.00;71.10
68922;DHT22;55959;51.244;5.724;2024-03-06T01:33:41;10.00;71.10
68922;DHT22;55959;51.244;5.724;2024-03-06T01:36:07;10.00;71.00
68922;DHT22;55959;51.244;5.724;2024-03-06T01:38:33;10.00;70.80
68922;DHT22;55959;51.244;5.724;2024-03-06T01:40:58;10.00;70.70
68922;DHT22;55959;51.244;5.724;2024-03-06T01:43:25;10.00;70.50
68922;DHT22;55959;51.244;5.724;2024-03-06T01:45:53;9.90;70.40
68922;DHT22;55959;51.244;5.724;2024-03-06T01:48:24;9.90;70.30
68922;DHT22;55959;51.244;5.724;2024-03-06T01:50:56;9.90;70.20
68922;DHT22;55959;51.244;5.724;2024-03-06T01:53:23;9.90;70.10
68922;DHT22;55959;51.244;5.724;2024-03-06T01:55:52;9.80;69.90
68922;DHT22;55959;51.244;5.724;2024-03-06T01:58:19;9.80;69.90
68922;DHT22;55959;51.244;5.724;2024-03-06T02:00:46;9.80;69.80
68922;DHT22;55959;51.244;5.724;2024-03-06T02:03:12;9.70;69.70
68922;DHT22;55959;51.244;5.724;2024-03-06T02:05:38;9.70;69.60
68922;DHT22;55959;51.244;5.724;2024-03-06T02:08:04;9.70;69.60
68922;DHT22;55959;51.244;5.724;2024-03-06T02:10:31;9.60;69.50
68922;DHT22;55959;51.244;5.724;2024-03-06T02:12:57;9.60;69.40
68922;DHT22;55959;51.244;5.724;2024-03-06T02:15:23;9.60;69.40
68922;DHT22;55959;51.244;5.724;2024-03-06T02:17:49;9.60;69.40
68922;DHT22;55959;51.244;5.724;2024-03-06T02:20:16;9.50;69.40
68922;DHT22;55959;51.244;5.724;2024-03-06T02:22:42;9.50;69.50
68922;DHT22;55959;51.244;5.724;2024-03-06T02:25:07;9.50;69.60
68922;DHT22;55959;51.244;5.724;2024-03-06T02:27:34;9.40;69.60
68922;DHT22;55959;51.244;5.724;2024-03-06T02:30:00;9.40;69.80
68922;DHT22;55959;51.244;5.724;2024-03-06T02:32:26;9.30;69.80
68922;DHT22;55959;51.244;5.724;2024-03-06T02:34:51;9.30;69.90
68922;DHT22;55959;51.244;5.724;2024-03-06T02:37:17;9.30;70.00
68922;DHT22;55959;51.244;5.724;2024-03-06T02:39:43;9.30;70.00
68922;DHT22;55959;51.244;5.724;2024-03-06T02:42:09;9.30;70.00
68922;DHT22;55959;51.244;5.724;2024-03-06T02:44:35;9.30;70.10
68922;DHT22;55959;51.244;5.724;2024-03-06T02:47:01;9.30;70.10
68922;DHT22;55959;51.244;5.724;2024-03-06T02:49:27;9.20;70.10
68922;DHT22;55959;51.244;5.724;2024-03-06T02:51:52;9.20;70.10
68922;DHT22;55959;51.244;5.724;2024-03-06T02:54:19;9.20;70.10
68922;DHT22;55959;51.244;5.724;2024-03-06T02:56:45;9.20;70.20
68922;DHT22;55959;51.244;5.724;2024-03-06T02:59:11;9.10;70.20
68922;DHT22;55959;51.244;5.724;2024-03-06T03:01:37;9.10;70.20
68922;DHT22;55959;51.244;5.724;2024-03-06T03:04:03;9.10;70.40
68922;DHT22;55959;51.244;5.724;2024-03-06T03:06:29;9.10;70.60
68922;DHT22;55959;51.244;5.724;2024-03-06T03:08:55;9.10;70.70
68922;DHT22;55959;51.244;5.724;2024-03-06T03:11:21;9.00;70.60
68922;DHT22;55959;51.244;5.724;2024-03-06T03:13:47;9.00;70.60
68922;DHT22;55959;51.244;5.724;2024-03-06T03:16:19;9.00;70.60
68922;DHT22;55959;51.244;5.724;2024-03-06T03:18:46;9.00;70.50
68922;DHT22;55959;51.244;5.724;2024-03-06T03:21:13;9.00;70.50
68922;DHT22;55959;51.244;5.724;2024-03-06T03:23:39;9.00;70.60
68922;DHT22;55959;51.244;5.724;2024-03-06T03:26:06;8.90;70.50
68922;DHT22;55959;51.244;5.724;2024-03-06T03:28:32;8.90;70.40
68922;DHT22;55959;51.244;5.724;2024-03-06T03:30:58;8.90;70.30
68922;DHT22;55959;51.244;5.724;2024-03-06T03:33:24;8.90;70.20
68922;DHT22;55959;51.244;5.724;2024-03-06T03:35:50;8.90;70.20
68922;DHT22;55959;51.244;5.724;2024-03-06T03:38:16;8.80;70.10
68922;DHT22;55959;51.244;5.724;2024-03-06T03:40:42;8.80;70.20
68922;DHT22;55959;51.244;5.724;2024-03-06T03:43:08;8.80;70.30
68922;DHT22;55959;51.244;5.724;2024-03-06T03:45:34;8.80;70.40
68922;DHT22;55959;51.244;5.724;2024-03-06T03:48:05;8.70;70.40
68922;DHT22;55959;51.244;5.724;2024-03-06T03:50:31;8.70;70.50
68922;DHT22;55959;51.244;5.724;2024-03-06T03:52:57;8.60;70.50
68922;DHT22;55959;51.244;5.724;2024-03-06T03:55:27;8.60;70.50
68922;DHT22;55959;51.244;5.724;2024-03-06T03:57:52;8.60;70.60
68922;DHT22;55959;51.244;5.724;2024-03-06T04:00:19;8.50;70.50
68922;DHT22;55959;51.244;5.724;2024-03-06T04:02:45;8.50;70.60
68922;DHT22;55959;51.244;5.724;2024-03-06T04:05:11;8.50;70.60
68922;DHT22;55959;51.244;5.724;2024-03-06T04:07:37;8.50;70.70
68922;DHT22;55959;51.244;5.724;2024-03-06T04:10:04;8.50;70.60
68922;DHT22;55959;51.244;5.724;2024-03-06T04:12:30;8.40;70.60
68922;DHT22;55959;51.244;5.724;2024-03-06T04:14:56;8.40;70.60
68922;DHT22;55959;51.244;5.724;2024-03-06T04:17:22;8.40;70.60
68922;DHT22;55959;51.244;5.724;2024-03-06T04:19:48;8.40;70.60
68922;DHT22;55959;51.244;5.724;2024-03-06T04:22:14;8.30;71.40
68922;DHT22;55959;51.244;5.724;2024-03-06T04:24:43;8.30;70.60
68922;DHT22;55959;51.244;5.724;2024-03-06T04:27:10;8.30;70.60
68922;DHT22;55959;51.244;5.724;2024-03-06T04:29:36;8.30;70.60
68922;DHT22;55959;51.244;5.724;2024-03-06T04:32:02;8.30;70.60
68922;DHT22;55959;51.244;5.724;2024-03-06T04:34:27;8.20;70.40
68922;DHT22;55959;51.244;5.724;2024-03-06T04:36:53;8.20;70.50
68922;DHT22;55959;51.244;5.724;2024-03-06T04:39:19;8.20;70.40
68922;DHT22;55959;51.244;5.724;2024-03-06T04:41:45;8.20;70.40
68922;DHT22;55959;51.244;5.724;2024-03-06T04:44:10;8.20;70.40
68922;DHT22;55959;51.244;5.724;2024-03-06T04:46:36;8.10;70.30
68922;DHT22;55959;51.244;5.724;2024-03-06T04:49:02;8.10;70.30
68922;DHT22;55959;51.244;5.724;2024-03-06T04:51:28;8.10;70.30
68922;DHT22;55959;51.244;5.724;2024-03-06T04:53:54;8.10;70.40
68922;DHT22;55959;51.244;5.724;2024-03-06T04:56:20;8.00;70.40
68922;DHT22;55959;51.244;5.724;2024-03-06T04:58:47;8.00;70.50
68922;DHT22;55959;51.244;5.724;2024-03-06T05:01:13;8.00;70.80
68922;DHT22;55959;51.244;5.724;2024-03-06T05:03:39;8.00;71.30
68922;DHT22;55959;51.244;5.724;2024-03-06T05:06:05;8.00;71.50
68922;DHT22;55959;51.244;5.724;2024-03-06T05:08:31;8.00;71.80
68922;DHT22;55959;51.244;5.724;2024-03-06T05:10:59;8.00;72.10
68922;DHT22;55959;51.244;5.724;2024-03-06T05:13:25;7.90;72.30
68922;DHT22;55959;51.244;5.724;2024-03-06T05:15:52;7.90;72.60
68922;DHT22;55959;51.244;5.724;2024-03-06T05:18:19;8.00;72.80
68922;DHT22;55959;51.244;5.724;2024-03-06T05:20:45;7.90;72.90
68922;DHT22;55959;51.244;5.724;2024-03-06T05:23:12;8.00;73.10
68922;DHT22;55959;51.244;5.724;2024-03-06T05:25:39;8.00;73.20
68922;DHT22;55959;51.244;5.724;2024-03-06T05:28:06;8.00;73.40
68922;DHT22;55959;51.244;5.724;2024-03-06T05:30:31;8.00;73.60
68922;DHT22;55959;51.244;5.724;2024-03-06T05:32:57;8.00;73.60
68922;DHT22;55959;51.244;5.724;2024-03-06T05:35:23;8.00;73.70
68922;DHT22;55959;51.244;5.724;2024-03-06T05:37:49;8.00;73.80
68922;DHT22;55959;51.244;5.724;2024-03-06T05:40:14;8.00;73.90
68922;DHT22;55959;51.244;5.724;2024-03-06T05:42:40;8.00;74.00
68922;DHT22;55959;51.244;5.724;2024-03-06T05:45:07;8.00;74.10
68922;DHT22;55959;51.244;5.724;2024-03-06T05:47:39;8.00;74.10
68922;DHT22;55959;51.244;5.724;2024-03-06T05:50:06;8.00;74.20
68922;DHT22;55959;51.244;5.724;2024-03-06T05:52:32;8.00;74.20
68922;DHT22;55959;51.244;5.724;2024-03-06T05:54:59;8.00;74.20
68922;DHT22;55959;51.244;5.724;2024-03-06T05:57:25;8.00;74.10
68922;DHT22;55959;51.244;5.724;2024-03-06T05:59:51;8.00;74.10
68922;DHT22;55959;51.244;5.724;2024-03-06T06:02:16;8.00;74.10
68922;DHT22;55959;51.244;5.724;2024-03-06T06:04:43;8.00;74.00
68922;DHT22;55959;51.244;5.724;2024-03-06T06:07:10;8.00;74.00
68922;DHT22;55959;51.244;5.724;2024-03-06T06:09:35;8.00;73.90
68922;DHT22;55959;51.244;5.724;2024-03-06T06:12:01;8.00;73.90
68922;DHT22;55959;51.244;5.724;2024-03-06T06:14:27;7.90;73.90
68922;DHT22;55959;51.244;5.724;2024-03-06T06:16:55;7.90;73.90
68922;DHT22;55959;51.244;5.724;2024-03-06T06:19:21;8.00;74.00
68922;DHT22;55959;51.244;5.724;2024-03-06T06:21:47;7.90;73.80
68922;DHT22;55959;51.244;5.724;2024-03-06T06:24:13;7.90;73.60
68922;DHT22;55959;51.244;5.724;2024-03-06T06:26:39;7.90;73.60
68922;DHT22;55959;51.244;5.724;2024-03-06T06:29:05;7.90;73.40
68922;DHT22;55959;51.244;5.724;2024-03-06T06:31:31;7.90;73.40
68922;DHT22;55959;51.244;5.724;2024-03-06T06:33:57;7.90;73.30
68922;DHT22;55959;51.244;5.724;2024-03-06T06:36:23;7.90;74.00
68922;DHT22;55959;51.244;5.724;2024-03-06T06:38:49;7.90;73.10
68922;DHT22;55959;51.244;5.724;2024-03-06T06:41:16;7.90;73.10
68922;DHT22;55959;51.244;5.724;2024-03-06T06:43:42;7.90;73.10
68922;DHT22;55959;51.244;5.724;2024-03-06T06:46:08;7.80;73.10
68922;DHT22;55959;51.244;5.724;2024-03-06T06:48:34;7.80;73.20
68922;DHT22;55959;51.244;5.724;2024-03-06T06:51:03;7.80;73.30
68922;DHT22;55959;51.244;5.724;2024-03-06T06:53:30;7.80;73.50
68922;DHT22;55959;51.244;5.724;2024-03-06T06:55:56;7.80;73.60
68922;DHT22;55959;51.244;5.724;2024-03-06T06:58:22;7.80;74.30
68922;DHT22;55959;51.244;5.724;2024-03-06T07:00:48;7.80;74.00
68922;DHT22;55959;51.244;5.724;2024-03-06T07:03:14;7.80;74.20
68922;DHT22;55959;51.244;5.724;2024-03-06T07:05:40;7.80;74.30
68922;DHT22;55959;51.244;5.724;2024-03-06T07:08:09;7.80;74.40
68922;DHT22;55959;51.244;5.724;2024-03-06T07:10:34;7.80;74.50
68922;DHT22;55959;51.244;5.724;2024-03-06T07:13:04;7.80;74.70
68922;DHT22;55959;51.244;5.724;2024-03-06T07:15:31;7.90;74.80
68922;DHT22;55959;51.244;5.724;2024-03-06T07:17:57;7.90;74.90
68922;DHT22;55959;51.244;5.724;2024-03-06T07:20:23;7.90;75.00
68922;DHT22;55959;51.244;5.724;2024-03-06T07:22:49;7.90;76.00
68922;DHT22;55959;51.244;5.724;2024-03-06T07:25:16;8.00;75.40
68922;DHT22;55959;51.244;5.724;2024-03-06T07:27:41;8.00;75.60
68922;DHT22;55959;51.244;5.724;2024-03-06T07:30:08;8.00;75.70
68922;DHT22;55959;51.244;5.724;2024-03-06T07:32:34;8.10;75.90
68922;DHT22;55959;51.244;5.724;2024-03-06T07:35:00;8.10;76.00
68922;DHT22;55959;51.244;5.724;2024-03-06T07:37:25;8.20;76.20
68922;DHT22;55959;51.244;5.724;2024-03-06T07:39:51;8.20;76.20
68922;DHT22;55959;51.244;5.724;2024-03-06T07:42:17;8.30;76.40
68922;DHT22;55959;51.244;5.724;2024-03-06T07:44:43;8.30;76.40
68922;DHT22;55959;51.244;5.724;2024-03-06T07:47:09;8.40;76.40
68922;DHT22;55959;51.244;5.724;2024-03-06T07:49:35;8.40;76.40
68922;DHT22;55959;51.244;5.724;2024-03-06T07:52:01;8.50;76.30
68922;DHT22;55959;51.244;5.724;2024-03-06T07:54:27;8.50;76.20
68922;DHT22;55959;51.244;5.724;2024-03-06T07:56:52;8.60;76.40
68922;DHT22;55959;51.244;5.724;2024-03-06T07:59:19;8.60;76.20
68922;DHT22;55959;51.244;5.724;2024-03-06T08:01:45;8.60;76.20
68922;DHT22;55959;51.244;5.724;2024-03-06T08:04:11;8.70;76.20
68922;DHT22;55959;51.244;5.724;2024-03-06T08:06:36;8.70;76.20
68922;DHT22;55959;51.244;5.724;2024-03-06T08:09:03;8.70;76.30
68922;DHT22;55959;51.244;5.724;2024-03-06T08:11:29;8.70;76.40
68922;DHT22;55959;51.244;5.724;2024-03-06T08:13:59;8.80;76.40
68922;DHT22;55959;51.244;5.724;2024-03-06T08:16:25;8.80;76.40
68922;DHT22;55959;51.244;5.724;2024-03-06T08:18:51;8.90;76.50
68922;DHT22;55959;51.244;5.724;2024-03-06T08:21:16;8.90;76.30
68922;DHT22;55959;51.244;5.724;2024-03-06T08:23:42;9.00;76.30
68922;DHT22;55959;51.244;5.724;2024-03-06T08:26:10;9.00;76.30
68922;DHT22;55959;51.244;5.724;2024-03-06T08:28:36;9.10;76.40
68922;DHT22;55959;51.244;5.724;2024-03-06T08:31:02;9.20;76.40
68922;DHT22;55959;51.244;5.724;2024-03-06T08:33:27;9.20;76.40
68922;DHT22;55959;51.244;5.724;2024-03-06T08:35:53;9.30;76.50
68922;DHT22;55959;51.244;5.724;2024-03-06T08:38:19;9.40;76.40
68922;DHT22;55959;51.244;5.724;2024-03-06T08:40:45;9.50;76.40
68922;DHT22;55959;51.244;5.724;2024-03-06T08:43:12;9.50;76.40
68922;DHT22;55959;51.244;5.724;2024-03-06T08:45:41;9.60;76.40
68922;DHT22;55959;51.244;5.724;2024-03-06T08:48:07;9.70;76.40
68922;DHT22;55959;51.244;5.724;2024-03-06T08:50:33;9.80;76.30
68922;DHT22;55959;51.244;5.724;2024-03-06T08:52:59;9.80;76.30
68922;DHT22;55959;51.244;5.724;2024-03-06T08:55:24;9.90;76.10
68922;DHT22;55959;51.244;5.724;2024-03-06T08:57:50;9.90;75.80
68922;DHT22;55959;51.244;5.724;2024-03-06T09:00:18;10.00;75.70
68922;DHT22;55959;51.244;5.724;2024-03-06T09:02:43;10.10;75.70
68922;DHT22;55959;51.244;5.724;2024-03-06T09:05:10;10.10;75.50
68922;DHT22;55959;51.244;5.724;2024-03-06T09:07:41;10.20;75.40
68922;DHT22;55959;51.244;5.724;2024-03-06T09:10:07;10.30;75.40
68922;DHT22;55959;51.244;5.724;2024-03-06T09:12:35;10.40;75.40
68922;DHT22;55959;51.244;5.724;2024-03-06T09:15:04;10.40;75.30
68922;DHT22;55959;51.244;5.724;2024-03-06T09:17:32;10.50;75.30
68922;DHT22;55959;51.244;5.724;2024-03-06T09:19:58;10.60;75.20
68922;DHT22;55959;51.244;5.724;2024-03-06T09:22:24;10.60;75.20
68922;DHT22;55959;51.244;5.724;2024-03-06T09:24:50;10.70;75.00
68922;DHT22;55959;51.244;5.724;2024-03-06T09:27:16;10.80;74.90
68922;DHT22;55959;51.244;5.724;2024-03-06T09:29:45;10.90;74.80
68922;DHT22;55959;51.244;5.724;2024-03-06T09:32:10;10.90;74.70
68922;DHT22;55959;51.244;5.724;2024-03-06T09:34:41;11.00;74.50
68922;DHT22;55959;51.244;5.724;2024-03-06T09:37:06;11.00;74.30
68922;DHT22;55959;51.244;5.724;2024-03-06T09:39:32;11.10;74.70
68922;DHT22;55959;51.244;5.724;2024-03-06T09:41:59;11.10;74.00
68922;DHT22;55959;51.244;5.724;2024-03-06T09:44:27;11.20;73.60
68922;DHT22;55959;51.244;5.724;2024-03-06T09:46:53;11.30;73.50
68922;DHT22;55959;51.244;5.724;2024-03-06T09:49:20;11.30;73.40
68922;DHT22;55959;51.244;5.724;2024-03-06T09:51:47;11.30;73.30
68922;DHT22;55959;51.244;5.724;2024-03-06T09:54:17;11.40;73.30
68922;DHT22;55959;51.244;5.724;2024-03-06T09:56:43;11.50;73.10
68922;DHT22;55959;51.244;5.724;2024-03-06T09:59:10;11.50;72.90
68922;DHT22;55959;51.244;5.724;2024-03-06T10:01:56;11.60;73.00
68922;DHT22;55959;51.244;5.724;2024-03-06T10:04:27;11.60;72.90
68922;DHT22;55959;51.244;5.724;2024-03-06T10:06:58;11.70;72.90
68922;DHT22;55959;51.244;5.724;2024-03-06T10:09:25;11.80;72.80
68922;DHT22;55959;51.244;5.724;2024-03-06T10:11:51;11.90;72.70
68922;DHT22;55959;51.244;5.724;2024-03-06T10:14:19;11.90;72.20
68922;DHT22;55959;51.244;5.724;2024-03-06T10:16:53;12.00;71.80
68922;DHT22;55959;51.244;5.724;2024-03-06T10:19:19;12.00;71.60
68922;DHT22;55959;51.244;5.724;2024-03-06T10:21:49;12.10;71.50
68922;DHT22;55959;51.244;5.724;2024-03-06T10:24:19;12.10;71.40
68922;DHT22;55959;51.244;5.724;2024-03-06T10:26:47;12.20;70.90
68922;DHT22;55959;51.244;5.724;2024-03-06T10:29:19;12.30;70.30
68922;DHT22;55959;51.244;5.724;2024-03-06T10:32:02;12.30;70.10
68922;DHT22;55959;51.244;5.724;2024-03-06T10:34:28;12.30;70.10
68922;DHT22;55959;51.244;5.724;2024-03-06T10:36:59;12.40;70.10
68922;DHT22;55959;51.244;5.724;2024-03-06T10:39:27;12.50;70.00
68922;DHT22;55959;51.244;5.724;2024-03-06T10:41:57;12.50;70.00
68922;DHT22;55959;51.244;5.724;2024-03-06T10:44:25;12.60;69.90
68922;DHT22;55959;51.244;5.724;2024-03-06T10:47:02;12.60;69.50
68922;DHT22;55959;51.244;5.724;2024-03-06T10:49:30;12.80;69.40
68922;DHT22;55959;51.244;5.724;2024-03-06T10:51:58;12.80;68.90
68922;DHT22;55959;51.244;5.724;2024-03-06T10:54:29;12.90;67.50
68922;DHT22;55959;51.244;5.724;2024-03-06T10:56:56;12.90;66.40
68922;DHT22;55959;51.244;5.724;2024-03-06T10:59:26;13.00;66.80
68922;DHT22;55959;51.244;5.724;2024-03-06T11:01:54;13.10;66.80
68922;DHT22;55959;51.244;5.724;2024-03-06T11:04:26;13.10;66.50
68922;DHT22;55959;51.244;5.724;2024-03-06T11:06:59;13.20;66.40
68922;DHT22;55959;51.244;5.724;2024-03-06T11:09:33;13.30;66.10
68922;DHT22;55959;51.244;5.724;2024-03-06T11:12:06;13.40;66.00
68922;DHT22;55959;51.244;5.724;2024-03-06T11:14:32;13.40;65.40
68922;DHT22;55959;51.244;5.724;2024-03-06T11:17:09;13.40;65.10
68922;DHT22;55959;51.244;5.724;2024-03-06T11:28:22;13.80;63.40
68922;DHT22;55959;51.244;5.724;2024-03-06T11:31:02;13.80;63.30
68922;DHT22;55959;51.244;5.724;2024-03-06T11:33:44;14.00;63.90
68922;DHT22;55959;51.244;5.724;2024-03-06T11:38:59;14.20;62.80
68922;DHT22;55959;51.244;5.724;2024-03-06T11:41:31;14.20;61.80
68922;DHT22;55959;51.244;5.724;2024-03-06T11:44:00;14.30;61.00
68922;DHT22;55959;51.244;5.724;2024-03-06T11:46:44;14.30;60.40
68922;DHT22;55959;51.244;5.724;2024-03-06T11:49:20;14.40;59.90
68922;DHT22;55959;51.244;5.724;2024-03-06T11:51:49;14.40;59.00
68922;DHT22;55959;51.244;5.724;2024-03-06T11:54:16;14.50;59.30
68922;DHT22;55959;51.244;5.724;2024-03-06T11:56:50;14.50;59.60
68922;DHT22;55959;51.244;5.724;2024-03-06T11:59:17;14.60;59.50
68922;DHT22;55959;51.244;5.724;2024-03-06T12:01:44;14.60;59.10
68922;DHT22;55959;51.244;5.724;2024-03-06T12:04:10;14.60;59.20
68922;DHT22;55959;51.244;5.724;2024-03-06T12:06:37;14.60;59.30
68922;DHT22;55959;51.244;5.724;2024-03-06T12:09:03;14.70;59.20
68922;DHT22;55959;51.244;5.724;2024-03-06T12:11:29;14.70;58.80
68922;DHT22;55959;51.244;5.724;2024-03-06T12:13:56;14.70;58.90
68922;DHT22;55959;51.244;5.724;2024-03-06T12:16:23;14.70;59.40
68922;DHT22;55959;51.244;5.724;2024-03-06T12:18:58;14.70;58.50
68922;DHT22;55959;51.244;5.724;2024-03-06T12:21:28;14.80;58.20
68922;DHT22;55959;51.244;5.724;2024-03-06T12:26:29;14.90;58.20
68922;DHT22;55959;51.244;5.724;2024-03-06T12:29:04;14.90;57.90
68922;DHT22;55959;51.244;5.724;2024-03-06T12:31:35;15.00;57.80
68922;DHT22;55959;51.244;5.724;2024-03-06T12:34:03;15.00;58.00
68922;DHT22;55959;51.244;5.724;2024-03-06T12:36:30;15.10;56.50
68922;DHT22;55959;51.244;5.724;2024-03-06T12:38:59;15.10;56.00
68922;DHT22;55959;51.244;5.724;2024-03-06T12:41:26;15.20;56.10
68922;DHT22;55959;51.244;5.724;2024-03-06T12:43:53;15.20;55.30
68922;DHT22;55959;51.244;5.724;2024-03-06T12:46:20;15.20;54.80
68922;DHT22;55959;51.244;5.724;2024-03-06T12:48:46;15.30;54.00
68922;DHT22;55959;51.244;5.724;2024-03-06T12:51:12;15.30;54.00
68922;DHT22;55959;51.244;5.724;2024-03-06T12:53:37;15.30;53.70
68922;DHT22;55959;51.244;5.724;2024-03-06T12:56:04;15.40;54.10
68922;DHT22;55959;51.244;5.724;2024-03-06T12:58:30;15.40;54.30
68922;DHT22;55959;51.244;5.724;2024-03-06T13:00:57;15.50;54.20
68922;DHT22;55959;51.244;5.724;2024-03-06T13:03:24;15.50;54.10
68922;DHT22;55959;51.244;5.724;2024-03-06T13:05:50;15.60;54.80
68922;DHT22;55959;51.244;5.724;2024-03-06T13:08:15;15.70;55.00
68922;DHT22;55959;51.244;5.724;2024-03-06T13:10:42;15.80;55.30
68922;DHT22;55959;51.244;5.724;2024-03-06T13:13:08;15.90;55.30
68922;DHT22;55959;51.244;5.724;2024-03-06T13:15:34;15.90;55.00
68922;DHT22;55959;51.244;5.724;2024-03-06T13:18:01;16.00;53.90
68922;DHT22;55959;51.244;5.724;2024-03-06T13:20:33;16.10;52.10
68922;DHT22;55959;51.244;5.724;2024-03-06T13:22:59;16.10;52.70
68922;DHT22;55959;51.244;5.724;2024-03-06T13:25:27;16.10;51.40
68922;DHT22;55959;51.244;5.724;2024-03-06T13:27:53;16.10;50.50
68922;DHT22;55959;51.244;5.724;2024-03-06T13:30:19;16.20;51.40
68922;DHT22;55959;51.244;5.724;2024-03-06T13:32:46;16.20;51.40
68922;DHT22;55959;51.244;5.724;2024-03-06T13:35:12;16.20;50.00
68922;DHT22;55959;51.244;5.724;2024-03-06T13:37:39;16.20;49.20
68922;DHT22;55959;51.244;5.724;2024-03-06T13:40:07;16.20;50.70
68922;DHT22;55959;51.244;5.724;2024-03-06T13:42:47;16.30;50.20
68922;DHT22;55959;51.244;5.724;2024-03-06T13:45:13;16.30;49.70
68922;DHT22;55959;51.244;5.724;2024-03-06T13:47:43;16.30;49.80
68922;DHT22;55959;51.244;5.724;2024-03-06T13:50:11;16.40;48.10
68922;DHT22;55959;51.244;5.724;2024-03-06T13:52:38;16.40;48.70
68922;DHT22;55959;51.244;5.724;2024-03-06T13:55:05;16.40;48.90
68922;DHT22;55959;51.244;5.724;2024-03-06T13:57:36;16.50;49.00
68922;DHT22;55959;51.244;5.724;2024-03-06T14:00:03;16.50;50.20
68922;DHT22;55959;51.244;5.724;2024-03-06T14:02:31;16.60;50.10
68922;DHT22;55959;51.244;5.724;2024-03-06T14:04:57;16.60;49.60
68922;DHT22;55959;51.244;5.724;2024-03-06T14:07:23;16.60;47.80
68922;DHT22;55959;51.244;5.724;2024-03-06T14:09:52;16.70;46.70
68922;DHT22;55959;51.244;5.724;2024-03-06T14:12:18;16.70;46.90
68922;DHT22;55959;51.244;5.724;2024-03-06T14:14:44;16.80;47.60
68922;DHT22;55959;51.244;5.724;2024-03-06T14:17:13;16.80;47.50
68922;DHT22;55959;51.244;5.724;2024-03-06T14:19:39;16.80;46.20
68922;DHT22;55959;51.244;5.724;2024-03-06T14:22:06;16.80;46.10
68922;DHT22;55959;51.244;5.724;2024-03-06T14:24:33;16.80;47.10
68922;DHT22;55959;51.244;5.724;2024-03-06T14:26:58;16.80;47.10
68922;DHT22;55959;51.244;5.724;2024-03-06T14:29:24;16.90;47.60
68922;DHT22;55959;51.244;5.724;2024-03-06T14:31:52;16.90;46.30
68922;DHT22;55959;51.244;5.724;2024-03-06T14:34:18;16.90;47.20
68922;DHT22;55959;51.244;5.724;2024-03-06T14:36:45;17.00;47.20
68922;DHT22;55959;51.244;5.724;2024-03-06T14:39:11;17.00;46.80
68922;DHT22;55959;51.244;5.724;2024-03-06T14:41:38;17.00;46.40
68922;DHT22;55959;51.244;5.724;2024-03-06T14:44:04;17.00;46.30
68922;DHT22;55959;51.244;5.724;2024-03-06T14:46:30;17.00;46.30
68922;DHT22;55959;51.244;5.724;2024-03-06T14:48:56;17.00;46.70
68922;DHT22;55959;51.244;5.724;2024-03-06T14:51:22;17.10;46.00
68922;DHT22;55959;51.244;5.724;2024-03-06T14:53:47;17.10;46.70
68922;DHT22;55959;51.244;5.724;2024-03-06T14:56:13;17.10;47.20
68922;DHT22;55959;51.244;5.724;2024-03-06T14:58:39;17.10;47.30
68922;DHT22;55959;51.244;5.724;2024-03-06T15:01:05;17.10;46.50
68922;DHT22;55959;51.244;5.724;2024-03-06T15:03:31;17.10;45.50
68922;DHT22;55959;51.244;5.724;2024-03-06T15:05:57;17.10;46.60
68922;DHT22;55959;51.244;5.724;2024-03-06T15:08:23;17.10;46.30
68922;DHT22;55959;51.244;5.724;2024-03-06T15:10:49;17.10;46.20
68922;DHT22;55959;51.244;5.724;2024-03-06T15:13:17;17.20;46.40
68922;DHT22;55959;51.244;5.724;2024-03-06T15:15:44;17.20;46.60
68922;DHT22;55959;51.244;5.724;2024-03-06T15:18:10;17.20;46.90
68922;DHT22;55959;51.244;5.724;2024-03-06T15:20:36;17.20;46.50
68922;DHT22;55959;51.244;5.724;2024-03-06T15:23:02;17.20;46.80
68922;DHT22;55959;51.244;5.724;2024-03-06T15:25:28;17.20;46.70
68922;DHT22;55959;51.244;5.724;2024-03-06T15:27:54;17.20;46.30
68922;DHT22;55959;51.244;5.724;2024-03-06T15:30:21;17.20;46.70
68922;DHT22;55959;51.244;5.724;2024-03-06T15:32:47;17.20;46.80
68922;DHT22;55959;51.244;5.724;2024-03-06T15:35:13;17.20;47.30
68922;DHT22;55959;51.244;5.724;2024-03-06T15:37:39;17.10;47.40
68922;DHT22;55959;51.244;5.724;2024-03-06T15:40:05;17.10;46.20
68922;DHT22;55959;51.244;5.724;2024-03-06T15:42:32;17.10;46.00
68922;DHT22;55959;51.244;5.724;2024-03-06T15:44:57;17.10;46.30
68922;DHT22;55959;51.244;5.724;2024-03-06T15:47:23;17.10;46.20
68922;DHT22;55959;51.244;5.724;2024-03-06T15:49:49;17.10;46.80